Time;durP1;ratioP1;P1;durP2;ratioP2;P2;SDS_P1;SDS_P2;PMS_P1;PMS_P2;Temp;Humidity;BMP_temperature;BMP_pressure;BME280_temperature;BME280_humidity;BME280_pressure;Samples;Min_cycle;Max_cycle;Signal;HPM_P1;HPM_P2
2022/01/16 00:01:06;;;;;;;1.50;1.30;;;0.60;98.00;;;;;;5112025;28;20453;-65
2022/01/16 00:06:19;;;;;;;1.20;1.00;;;0.60;98.00;;;;;;5112181;28;20488;-65
2022/01/16 00:08:46;;;;;;;1.87;1.27;;;0.50;98.00;;;;;;5112028;28;20857;-65
2022/01/16 00:11:14;;;;;;;1.63;1.40;;;0.40;98.00;;;;;;5111890;28;20451;-65
2022/01/16 00:13:41;;;;;;;1.70;1.60;;;0.40;98.00;;;;;;5112323;28;20563;-66
2022/01/16 00:16:13;;;;;;;1.47;1.40;;;0.40;98.00;;;;;;5115325;28;20482;-66
2022/01/16 00:18:49;;;;;;;1.67;1.63;;;0.40;98.00;;;;;;5116157;28;20462;-65
2022/01/16 00:21:17;;;;;;;1.80;1.67;;;0.50;98.00;;;;;;5116064;28;20457;-65
2022/01/16 00:23:46;;;;;;;1.40;1.37;;;0.60;98.00;;;;;;5116183;28;20455;-65
2022/01/16 00:26:13;;;;;;;1.53;1.40;;;0.60;98.00;;;;;;5115967;28;20485;-66
2022/01/16 00:28:40;;;;;;;1.30;1.23;;;0.60;98.00;;;;;;5116002;28;20454;-65
2022/01/16 00:31:07;;;;;;;1.73;1.63;;;0.50;98.00;;;;;;5115825;28;20486;-65
2022/01/16 00:33:39;;;;;;;2.60;1.50;;;0.40;98.00;;;;;;5115998;28;20504;-65
2022/01/16 00:36:07;;;;;;;2.23;1.67;;;0.40;98.00;;;;;;5115608;28;20478;-66
2022/01/16 00:38:38;;;;;;;1.47;1.33;;;0.40;98.00;;;;;;5115819;28;20955;-66
2022/01/16 00:41:07;;;;;;;1.20;1.10;;;0.30;98.00;;;;;;5115559;28;20928;-64
2022/01/16 00:43:39;;;;;;;1.60;1.50;;;0.30;98.00;;;;;;5115550;28;20457;-66
2022/01/16 00:46:07;;;;;;;1.57;1.57;;;0.20;98.00;;;;;;5115310;28;20562;-64
2022/01/16 00:48:35;;;;;;;1.40;1.40;;;0.20;98.00;;;;;;5115851;28;20540;-64
2022/01/16 00:51:01;;;;;;;2.33;2.13;;;0.20;98.00;;;;;;5115304;28;20520;-65
2022/01/16 00:53:28;;;;;;;1.20;1.10;;;0.30;98.00;;;;;;5115610;28;20860;-65
2022/01/16 00:55:56;;;;;;;1.40;1.30;;;0.10;98.00;;;;;;5115430;28;20572;-65
2022/01/16 00:58:24;;;;;;;3.20;1.80;;;0.20;98.00;;;;;;5115737;28;20540;-65
2022/01/16 01:00:52;;;;;;;6.60;1.67;;;0.10;98.00;;;;;;5115496;28;20505;-65
2022/01/16 01:03:20;;;;;;;1.70;1.20;;;0.20;98.00;;;;;;5115281;28;20511;-64
2022/01/16 01:05:47;;;;;;;1.53;1.50;;;0.20;98.00;;;;;;5115611;28;21020;-65
2022/01/16 01:08:14;;;;;;;1.33;1.20;;;0.20;98.00;;;;;;5114845;28;20828;-65
2022/01/16 01:10:44;;;;;;;1.70;1.60;;;0.20;98.00;;;;;;5115123;28;20493;-66
2022/01/16 01:13:20;;;;;;;1.77;1.50;;;0.10;98.00;;;;;;5115308;28;20511;-64
2022/01/16 01:16:14;;;;;;;1.10;1.03;;;-0.10;98.00;;;;;;5114876;28;20481;-65
2022/01/16 01:18:43;;;;;;;1.20;1.10;;;0.00;98.00;;;;;;5112946;27;20489;-65
2022/01/16 01:21:24;;;;;;;1.23;1.20;;;-0.20;98.00;;;;;;5115001;28;20541;-65
2022/01/16 01:23:53;;;;;;;1.20;1.10;;;-0.20;98.00;;;;;;5114741;28;20859;-65
2022/01/16 01:26:25;;;;;;;2.13;1.47;;;-0.10;98.00;;;;;;5113970;28;20955;-66
2022/01/16 01:28:52;;;;;;;1.20;1.20;;;0.10;98.00;;;;;;5114812;28;20940;-65
2022/01/16 01:31:20;;;;;;;2.30;1.40;;;0.10;98.00;;;;;;5114629;28;20565;-65
2022/01/16 01:33:47;;;;;;;1.20;1.10;;;0.00;98.00;;;;;;5114483;28;20855;-66
2022/01/16 01:36:14;;;;;;;1.53;1.47;;;-0.10;98.00;;;;;;5114282;28;20510;-64
2022/01/16 01:38:41;;;;;;;1.67;1.60;;;-0.20;98.00;;;;;;5114456;28;21035;-65
2022/01/16 01:41:08;;;;;;;1.30;1.30;;;-0.30;98.00;;;;;;5114367;28;20547;-64
2022/01/16 01:51:50;;;;;;;1.10;1.03;;;-0.40;98.00;;;;;;5113286;28;20498;-64
2022/01/16 01:54:17;;;;;;;1.67;1.50;;;-0.40;98.00;;;;;;5114379;28;20496;-66
2022/01/16 01:56:44;;;;;;;1.10;1.10;;;-0.40;98.00;;;;;;5114017;28;20953;-64
2022/01/16 01:59:12;;;;;;;1.20;1.20;;;-0.40;98.00;;;;;;5114373;27;20537;-65
2022/01/16 02:01:40;;;;;;;1.10;1.00;;;-0.40;98.00;;;;;;5110788;28;20480;-64
2022/01/16 02:04:08;;;;;;;2.63;1.97;;;-0.50;98.00;;;;;;5113274;28;20481;-64
2022/01/16 02:06:35;;;;;;;1.10;1.00;;;-0.50;98.00;;;;;;5113445;28;20480;-64
2022/01/16 02:09:06;;;;;;;1.60;1.50;;;-0.50;98.00;;;;;;5114062;28;20500;-65
2022/01/16 02:11:33;;;;;;;1.10;1.10;;;-0.30;98.00;;;;;;5113961;28;20503;-66
2022/01/16 02:14:08;;;;;;;2.43;1.60;;;-0.30;98.00;;;;;;5114136;28;20948;-64
2022/01/16 02:28:05;;;;;;;1.27;1.27;;;-0.10;98.00;;;;;;5114023;28;20493;-64
2022/01/16 02:31:01;;;;;;;1.30;1.20;;;0.00;98.00;;;;;;5113849;28;20458;-65
2022/01/16 02:36:25;;;;;;;2.27;2.07;;;0.10;98.00;;;;;;5113432;28;20840;-64
2022/01/16 02:38:57;;;;;;;1.30;1.30;;;0.10;98.00;;;;;;5112459;28;20977;-65
2022/01/16 02:41:25;;;;;;;1.10;1.00;;;0.30;98.00;;;;;;5113120;28;20455;-65
2022/01/16 02:43:54;;;;;;;2.37;1.90;;;0.40;98.00;;;;;;5113589;28;20450;-65
2022/01/16 02:46:39;;;;;;;2.20;1.63;;;0.40;98.00;;;;;;5111768;28;20466;-65
2022/01/16 02:49:21;;;;;;;1.20;1.10;;;0.40;98.00;;;;;;5113293;28;20450;-65
2022/01/16 02:51:49;;;;;;;1.10;1.03;;;0.40;98.00;;;;;;5112958;28;20576;-65
2022/01/16 02:54:17;;;;;;;1.30;1.30;;;0.30;98.00;;;;;;5113240;28;20452;-65
2022/01/16 02:56:45;;;;;;;1.73;1.60;;;0.40;98.00;;;;;;5112867;28;20517;-65
2022/01/16 02:59:12;;;;;;;2.43;1.77;;;0.50;98.00;;;;;;5112916;28;20458;-65
2022/01/16 03:01:40;;;;;;;1.73;1.47;;;0.50;98.00;;;;;;5112892;28;20485;-65
2022/01/16 03:04:08;;;;;;;1.63;1.37;;;0.50;98.00;;;;;;5112868;28;20453;-65
2022/01/16 03:06:35;;;;;;;1.50;1.50;;;0.50;98.00;;;;;;5112695;28;20964;-66
2022/01/16 03:09:06;;;;;;;1.33;1.30;;;0.50;98.00;;;;;;5112916;28;20514;-65
2022/01/16 03:11:36;;;;;;;1.10;1.00;;;0.60;98.00;;;;;;5112739;28;20458;-64
2022/01/16 03:14:09;;;;;;;1.30;1.23;;;0.70;98.00;;;;;;5111618;28;21017;-65
2022/01/16 03:16:40;;;;;;;1.60;1.50;;;0.70;98.00;;;;;;5111489;28;20485;-65
2022/01/16 03:21:54;;;;;;;3.20;1.20;;;0.70;98.00;;;;;;5112927;28;20461;-65
2022/01/16 03:24:24;;;;;;;1.87;1.87;;;0.70;98.00;;;;;;5112841;28;20473;-64
2022/01/16 03:26:54;;;;;;;1.10;1.10;;;0.70;98.00;;;;;;5112467;28;20553;-65
2022/01/16 03:29:21;;;;;;;1.10;1.00;;;0.60;98.00;;;;;;5112699;28;21070;-65
2022/01/16 03:31:48;;;;;;;1.77;1.63;;;0.60;98.00;;;;;;5112580;28;20545;-65
2022/01/16 03:34:15;;;;;;;1.77;1.50;;;0.60;98.00;;;;;;5112571;28;20818;-64
2022/01/16 03:36:42;;;;;;;1.73;1.47;;;0.50;98.00;;;;;;5112465;28;20576;-64
2022/01/16 03:39:09;;;;;;;1.70;1.10;;;0.50;98.00;;;;;;5111038;28;20994;-65
2022/01/16 03:41:37;;;;;;;1.20;1.20;;;0.40;98.00;;;;;;5112388;28;20455;-65
2022/01/16 03:44:07;;;;;;;1.73;1.63;;;0.50;98.00;;;;;;5112444;28;20453;-65
2022/01/16 03:46:39;;;;;;;2.70;1.83;;;0.50;98.00;;;;;;5112350;28;20554;-65
2022/01/16 03:49:08;;;;;;;1.10;1.00;;;0.50;98.00;;;;;;5112192;28;20843;-64
2022/01/16 03:51:36;;;;;;;1.27;1.20;;;0.50;98.00;;;;;;5112068;28;20449;-63
2022/01/16 03:54:04;;;;;;;1.30;1.30;;;0.60;98.00;;;;;;5112632;28;20493;-66
2022/01/16 03:56:31;;;;;;;1.23;1.20;;;0.50;98.00;;;;;;5112039;28;21008;-65
2022/01/16 03:58:58;;;;;;;1.97;1.57;;;0.50;98.00;;;;;;5112134;28;20493;-66
2022/01/16 04:01:27;;;;;;;1.50;1.40;;;0.40;98.00;;;;;;5112062;28;20512;-65
2022/01/16 04:03:55;;;;;;;2.23;1.63;;;0.30;98.00;;;;;;5111764;28;20489;-65
2022/01/16 04:06:23;;;;;;;1.37;1.33;;;0.30;98.00;;;;;;5110880;28;20558;-64
2022/01/16 04:08:50;;;;;;;2.37;2.00;;;0.40;98.00;;;;;;5112236;28;20481;-64
2022/01/16 04:11:18;;;;;;;1.70;1.60;;;0.30;98.00;;;;;;5112166;28;20522;-65
2022/01/16 04:13:50;;;;;;;3.57;2.70;;;0.30;98.00;;;;;;5111905;28;20492;-65
2022/01/16 04:16:19;;;;;;;8.57;2.73;;;0.40;98.00;;;;;;5111868;28;20566;-65
2022/01/16 04:18:51;;;;;;;2.50;2.10;;;0.40;98.00;;;;;;5111943;28;20493;-64
2022/01/16 04:21:18;;;;;;;1.10;1.10;;;0.30;98.00;;;;;;5111766;28;20457;-64
2022/01/16 04:23:45;;;;;;;4.13;2.50;;;0.40;98.00;;;;;;5111707;28;20557;-65
2022/01/16 04:26:12;;;;;;;1.30;1.30;;;0.40;98.00;;;;;;5112041;28;20956;-64
2022/01/16 04:28:39;;;;;;;1.10;1.10;;;0.40;98.00;;;;;;5111901;28;21018;-64
2022/01/16 04:31:06;;;;;;;2.47;2.10;;;0.40;98.00;;;;;;5111962;28;21052;-65
2022/01/16 04:33:33;;;;;;;2.33;2.23;;;0.40;98.00;;;;;;5111722;28;20503;-65
2022/01/16 04:36:02;;;;;;;1.83;1.73;;;0.40;98.00;;;;;;5110685;28;20513;-66
2022/01/16 04:38:29;;;;;;;2.60;1.73;;;0.50;98.00;;;;;;5111631;28;20944;-66
2022/01/16 04:43:51;;;;;;;2.33;1.30;;;0.60;98.00;;;;;;5111867;28;20446;-64
2022/01/16 04:46:21;;;;;;;3.10;2.43;;;0.50;98.00;;;;;;5111718;28;21052;-65
2022/01/16 04:48:49;;;;;;;1.63;1.53;;;0.40;98.00;;;;;;5110417;28;20477;-67
2022/01/16 04:51:19;;;;;;;6.40;3.13;;;0.40;98.00;;;;;;5111673;28;20481;-65
2022/01/16 04:53:46;;;;;;;2.07;1.90;;;0.50;98.00;;;;;;5110649;28;20873;-65
2022/01/16 04:56:13;;;;;;;2.00;1.90;;;0.50;98.00;;;;;;5111624;28;20525;-66
2022/01/16 04:58:42;;;;;;;2.63;2.43;;;0.40;98.00;;;;;;5111602;28;20483;-64
2022/01/16 05:01:11;;;;;;;1.60;1.50;;;0.50;98.00;;;;;;5112003;28;20965;-64
2022/01/16 05:03:39;;;;;;;1.43;1.33;;;0.50;98.00;;;;;;5115415;28;20871;-65
2022/01/16 05:06:07;;;;;;;1.93;1.77;;;0.50;98.00;;;;;;5115127;28;20498;-64
2022/01/16 05:08:35;;;;;;;1.47;1.33;;;0.60;98.00;;;;;;5115215;28;20489;-65
2022/01/16 05:11:05;;;;;;;1.20;1.20;;;0.60;98.00;;;;;;5115542;28;20478;-64
2022/01/16 05:19:00;;;;;;;1.73;1.63;;;0.70;98.00;;;;;;5115207;28;20468;-65
2022/01/16 05:21:27;;;;;;;1.77;1.70;;;0.70;98.00;;;;;;5114749;28;20833;-64
2022/01/16 05:23:55;;;;;;;2.50;2.30;;;0.80;98.00;;;;;;5114959;28;20546;-65
2022/01/16 05:26:26;;;;;;;1.50;1.23;;;0.90;98.00;;;;;;5115173;28;20925;-65
2022/01/16 05:28:54;;;;;;;1.63;1.63;;;0.90;98.00;;;;;;5114801;28;20461;-66
2022/01/16 05:31:21;;;;;;;2.60;2.33;;;1.00;98.00;;;;;;5114476;28;21022;-65
2022/01/16 05:33:49;;;;;;;1.50;1.30;;;1.00;98.00;;;;;;5114673;28;20457;-65
2022/01/16 05:36:16;;;;;;;1.10;1.00;;;1.00;98.00;;;;;;5114702;28;20966;-65
2022/01/16 05:38:43;;;;;;;3.27;2.80;;;1.00;98.00;;;;;;5114582;28;20948;-66
2022/01/16 05:41:11;;;;;;;1.20;1.13;;;1.00;98.00;;;;;;5114622;28;20493;-65
2022/01/16 05:43:38;;;;;;;1.33;1.27;;;1.00;98.00;;;;;;5114205;28;20501;-65
2022/01/16 05:46:06;;;;;;;1.30;1.20;;;1.00;98.00;;;;;;5114250;28;20504;-65
2022/01/16 05:48:33;;;;;;;1.27;1.20;;;1.00;98.00;;;;;;5113829;28;20494;-66
2022/01/16 05:51:01;;;;;;;1.70;1.60;;;0.90;98.00;;;;;;5114459;28;20454;-64
2022/01/16 05:53:28;;;;;;;2.67;2.47;;;0.80;98.00;;;;;;5114386;28;20458;-65
2022/01/16 05:55:55;;;;;;;1.17;1.17;;;0.80;98.00;;;;;;5114218;28;20453;-65
2022/01/16 05:58:23;;;;;;;3.57;2.03;;;0.90;98.00;;;;;;5114113;28;20481;-65
2022/01/16 06:00:50;;;;;;;1.20;1.10;;;1.00;98.00;;;;;;5113018;28;21036;-66
2022/01/16 06:03:19;;;;;;;1.93;1.77;;;1.00;98.00;;;;;;5114113;28;20562;-65
2022/01/16 06:05:46;;;;;;;1.10;1.10;;;0.90;98.00;;;;;;5113865;28;20463;-65
2022/01/16 06:08:14;;;;;;;1.33;1.30;;;0.80;98.00;;;;;;5112830;28;20514;-66
2022/01/16 06:10:41;;;;;;;1.20;1.17;;;0.80;98.00;;;;;;5113824;28;20459;-66
2022/01/16 06:13:09;;;;;;;1.40;1.37;;;1.00;98.00;;;;;;5113664;28;20497;-64
2022/01/16 06:15:40;;;;;;;1.47;1.33;;;1.00;98.00;;;;;;5113788;28;20507;-64
2022/01/16 06:18:07;;;;;;;4.73;2.00;;;1.10;98.00;;;;;;5113974;28;20488;-65
2022/01/16 06:20:34;;;;;;;1.10;1.00;;;1.00;98.00;;;;;;5113718;28;20481;-65
2022/01/16 06:23:01;;;;;;;1.17;1.10;;;1.00;98.00;;;;;;5113733;28;20855;-65
2022/01/16 06:25:29;;;;;;;1.50;1.40;;;1.00;98.00;;;;;;5113881;28;20998;-65
2022/01/16 06:27:56;;;;;;;3.20;1.50;;;1.00;98.00;;;;;;5113757;28;20510;-64
2022/01/16 06:30:23;;;;;;;1.27;1.20;;;0.90;98.00;;;;;;5113890;28;20494;-64
2022/01/16 06:32:51;;;;;;;1.40;1.30;;;0.90;98.00;;;;;;5113599;28;20464;-65
2022/01/16 06:35:19;;;;;;;1.97;1.83;;;1.00;98.00;;;;;;5114094;28;20835;-64
2022/01/16 06:37:46;;;;;;;4.40;2.33;;;0.90;98.00;;;;;;5113465;28;20573;-65
2022/01/16 06:40:15;;;;;;;1.50;1.40;;;0.80;98.00;;;;;;5113424;28;20481;-65
2022/01/16 06:42:42;;;;;;;4.10;2.03;;;0.70;98.00;;;;;;5112219;28;20539;-64
2022/01/16 06:45:11;;;;;;;1.70;1.60;;;0.70;98.00;;;;;;5113433;28;20548;-65
2022/01/16 06:47:38;;;;;;;4.70;2.63;;;0.70;98.00;;;;;;5112919;28;20490;-64
2022/01/16 06:50:09;;;;;;;1.90;1.63;;;0.70;98.00;;;;;;5112766;28;21153;-66
2022/01/16 06:52:36;;;;;;;1.73;1.63;;;0.90;98.00;;;;;;5112654;28;20816;-65
2022/01/16 06:55:03;;;;;;;1.23;1.23;;;1.00;98.00;;;;;;5112521;28;21021;-66
2022/01/16 06:57:30;;;;;;;1.60;1.50;;;1.00;98.00;;;;;;5112926;28;20517;-65
2022/01/16 06:59:57;;;;;;;3.10;1.77;;;1.00;98.00;;;;;;5112899;28;20485;-65
2022/01/16 07:02:24;;;;;;;1.40;1.30;;;1.00;98.00;;;;;;5112699;28;20486;-65
2022/01/16 07:04:51;;;;;;;2.87;2.63;;;0.90;98.00;;;;;;5112889;28;20461;-65
2022/01/16 07:07:20;;;;;;;4.90;1.97;;;0.80;98.00;;;;;;5112844;28;20492;-65
2022/01/16 07:09:47;;;;;;;1.10;1.00;;;0.80;98.00;;;;;;5112642;28;20510;-65
2022/01/16 07:12:14;;;;;;;1.30;1.23;;;0.70;98.00;;;;;;5112647;28;20514;-65
2022/01/16 07:14:43;;;;;;;2.37;1.83;;;0.60;98.00;;;;;;5112684;28;21015;-66
2022/01/16 07:17:10;;;;;;;1.43;1.43;;;0.60;98.00;;;;;;5112510;28;20538;-65
2022/01/16 07:19:37;;;;;;;1.53;1.43;;;0.50;98.00;;;;;;5112681;28;20919;-65
2022/01/16 07:22:05;;;;;;;1.43;1.33;;;0.40;98.00;;;;;;5112611;28;20538;-65
2022/01/16 07:24:33;;;;;;;1.10;1.00;;;0.40;98.00;;;;;;5111983;28;20526;-65
2022/01/16 07:27:01;;;;;;;1.10;1.00;;;0.30;98.00;;;;;;5112489;28;20493;-66
2022/01/16 07:29:29;;;;;;;1.80;1.60;;;0.30;98.00;;;;;;5112699;28;20816;-64
2022/01/16 07:31:56;;;;;;;1.90;1.70;;;0.30;98.00;;;;;;5112570;28;20457;-64
2022/01/16 07:34:23;;;;;;;1.10;1.10;;;0.20;98.00;;;;;;5112525;28;21003;-65
2022/01/16 07:36:50;;;;;;;1.70;1.60;;;0.10;98.00;;;;;;5112333;28;20457;-65
2022/01/16 07:39:17;;;;;;;1.40;1.30;;;0.20;98.00;;;;;;5112375;28;20486;-65
2022/01/16 07:41:46;;;;;;;2.10;1.97;;;0.30;98.00;;;;;;5112275;28;20495;-65
2022/01/16 07:44:14;;;;;;;1.10;1.10;;;0.40;98.00;;;;;;5112563;28;20496;-65
2022/01/16 07:46:41;;;;;;;1.63;1.63;;;0.50;98.00;;;;;;5111158;28;20468;-65
2022/01/16 07:49:08;;;;;;;1.93;1.83;;;0.60;98.00;;;;;;5111103;28;20854;-66
2022/01/16 07:51:35;;;;;;;2.27;2.17;;;0.60;98.00;;;;;;5112229;28;21034;-66
2022/01/16 07:54:02;;;;;;;1.10;1.00;;;0.50;98.00;;;;;;5112293;28;20534;-65
2022/01/16 07:56:28;;;;;;;2.07;1.97;;;0.40;98.00;;;;;;5112453;28;20526;-65
2022/01/16 07:58:57;;;;;;;1.30;1.20;;;0.50;98.00;;;;;;5112084;28;20525;-66
2022/01/16 08:01:24;;;;;;;1.27;1.23;;;0.40;98.00;;;;;;5112335;28;20553;-66
2022/01/16 08:03:52;;;;;;;1.10;1.10;;;0.50;98.00;;;;;;5112150;28;20498;-65
2022/01/16 08:06:19;;;;;;;2.40;1.63;;;0.40;98.00;;;;;;5112292;28;20544;-66
2022/01/16 08:08:46;;;;;;;2.40;1.87;;;0.30;98.00;;;;;;5111215;28;20536;-65
2022/01/16 08:11:13;;;;;;;2.37;2.20;;;0.20;98.00;;;;;;5111864;28;20497;-65
2022/01/16 08:13:40;;;;;;;1.47;1.47;;;0.30;98.00;;;;;;5112032;28;20584;-65
2022/01/16 08:16:09;;;;;;;2.53;2.33;;;0.30;98.00;;;;;;5111922;28;20540;-65
2022/01/16 08:18:36;;;;;;;1.33;1.27;;;0.30;98.00;;;;;;5111536;28;20513;-64
2022/01/16 08:21:04;;;;;;;1.93;1.83;;;0.30;98.00;;;;;;5111684;28;20498;-64
2022/01/16 08:23:31;;;;;;;2.37;2.00;;;0.40;98.00;;;;;;5111994;28;20458;-65
2022/01/16 08:25:58;;;;;;;1.37;1.30;;;0.30;98.00;;;;;;5111623;28;20970;-64
2022/01/16 08:28:25;;;;;;;1.23;1.13;;;0.40;98.00;;;;;;5111607;28;20500;-66
2022/01/16 08:30:52;;;;;;;2.37;2.23;;;0.30;98.00;;;;;;5111839;28;20851;-65
2022/01/16 08:33:20;;;;;;;2.00;1.93;;;0.20;98.00;;;;;;5111892;28;20461;-66
2022/01/16 08:35:48;;;;;;;1.40;1.37;;;0.20;98.00;;;;;;5111790;28;20489;-64
2022/01/16 08:38:15;;;;;;;1.43;1.40;;;0.30;98.00;;;;;;5115411;28;20512;-66
2022/01/16 08:40:42;;;;;;;2.17;1.57;;;0.30;98.00;;;;;;5116022;28;20450;-64
2022/01/16 08:43:10;;;;;;;1.43;1.33;;;0.30;98.00;;;;;;5115681;28;20557;-65
2022/01/16 08:45:37;;;;;;;2.17;2.00;;;0.40;98.00;;;;;;5115638;28;20874;-65
2022/01/16 08:48:05;;;;;;;2.43;1.70;;;0.60;98.00;;;;;;5115440;28;20538;-65
2022/01/16 08:50:35;;;;;;;2.00;1.73;;;0.70;98.00;;;;;;5115573;28;20554;-65
2022/01/16 08:53:02;;;;;;;2.33;2.13;;;0.80;98.00;;;;;;5103288;28;20458;-66
2022/01/16 08:55:30;;;;;;;4.80;3.20;;;0.80;98.00;;;;;;5101764;28;20952;-66
2022/01/16 08:57:59;;;;;;;1.93;1.43;;;0.90;98.00;;;;;;5102636;28;20578;-66
2022/01/16 09:00:27;;;;;;;1.50;1.40;;;0.80;98.00;;;;;;5108661;28;20442;-63
2022/01/16 09:02:57;;;;;;;1.20;1.10;;;0.80;98.00;;;;;;5101256;28;20744;-67
2022/01/16 09:05:25;;;;;;;1.37;1.37;;;0.80;98.00;;;;;;5111218;28;20454;-66
2022/01/16 09:07:54;;;;;;;2.23;1.97;;;0.90;98.00;;;;;;5103238;28;20787;-66
2022/01/16 09:10:21;;;;;;;4.37;2.03;;;1.00;98.00;;;;;;5103482;28;20523;-67
2022/01/16 09:12:49;;;;;;;1.50;1.50;;;1.00;98.00;;;;;;5100013;28;20561;-66
2022/01/16 09:15:16;;;;;;;2.50;1.73;;;1.20;98.00;;;;;;5104224;28;20519;-65
2022/01/16 09:17:43;;;;;;;1.73;1.67;;;1.10;98.00;;;;;;5099616;28;20521;-66
2022/01/16 09:20:13;;;;;;;1.10;1.07;;;1.10;98.00;;;;;;5105539;28;20466;-66
2022/01/16 09:22:40;;;;;;;1.40;1.40;;;1.00;98.00;;;;;;5101956;28;20762;-65
2022/01/16 09:25:11;;;;;;;1.30;1.30;;;1.00;98.00;;;;;;5099581;28;20458;-63
2022/01/16 09:27:38;;;;;;;2.33;1.37;;;0.90;98.00;;;;;;5101056;28;20469;-66
2022/01/16 09:30:08;;;;;;;2.30;2.13;;;0.80;98.00;;;;;;5096133;28;20493;-65
2022/01/16 09:32:36;;;;;;;9.70;2.90;;;0.70;98.00;;;;;;5076062;28;20966;-65
2022/01/16 09:35:05;;;;;;;1.10;1.10;;;0.80;98.00;;;;;;5105075;28;20469;-64
2022/01/16 09:37:32;;;;;;;3.60;1.60;;;0.80;98.00;;;;;;5101044;28;20540;-64
2022/01/16 09:40:00;;;;;;;1.77;1.67;;;0.80;98.00;;;;;;5100723;28;20458;-66
2022/01/16 09:42:29;;;;;;;1.60;1.50;;;0.80;98.00;;;;;;5106880;28;21094;-64
2022/01/16 09:44:56;;;;;;;2.47;1.80;;;0.80;98.00;;;;;;5109786;28;20876;-65
2022/01/16 09:47:23;;;;;;;2.87;2.67;;;0.80;98.00;;;;;;5109042;28;20549;-67
2022/01/16 09:49:50;;;;;;;2.80;2.37;;;0.80;98.00;;;;;;5095379;28;20474;-65
2022/01/16 09:52:18;;;;;;;1.10;1.00;;;0.90;98.00;;;;;;5093632;28;20861;-64
2022/01/16 09:54:46;;;;;;;1.60;1.53;;;0.90;98.00;;;;;;5106113;28;20485;-67
2022/01/16 09:57:14;;;;;;;1.60;1.50;;;0.90;98.00;;;;;;5096087;28;21156;-64
2022/01/16 09:59:43;;;;;;;2.97;2.13;;;1.00;98.00;;;;;;5092624;28;20530;-66
2022/01/16 10:02:11;;;;;;;3.83;2.70;;;1.20;98.00;;;;;;5105807;28;20859;-64
2022/01/16 10:04:40;;;;;;;6.80;3.23;;;1.20;98.00;;;;;;5105349;28;20551;-64
2022/01/16 10:07:10;;;;;;;4.60;2.33;;;1.20;98.00;;;;;;5104797;28;20859;-65
2022/01/16 10:09:39;;;;;;;3.67;2.67;;;1.30;98.00;;;;;;5101359;28;20512;-64
2022/01/16 10:12:14;;;;;;;3.13;2.80;;;1.60;98.00;;;;;;5099451;28;20490;-64
2022/01/16 10:14:49;;;;;;;1.20;1.20;;;1.70;98.00;;;;;;5101878;28;20467;-64
2022/01/16 10:17:18;;;;;;;1.10;1.10;;;1.60;98.00;;;;;;5092204;28;20820;-64
2022/01/16 10:19:46;;;;;;;1.80;1.47;;;1.80;98.00;;;;;;5091714;28;20913;-63
2022/01/16 10:22:15;;;;;;;1.60;1.57;;;1.90;98.00;;;;;;5107250;28;20956;-63
2022/01/16 10:24:43;;;;;;;2.80;1.83;;;1.80;98.00;;;;;;5109432;28;20490;-64
2022/01/16 10:27:21;;;;;;;2.03;1.63;;;1.70;98.00;;;;;;5104155;28;20968;-65
2022/01/16 10:29:52;;;;;;;1.70;1.50;;;1.50;98.00;;;;;;5100490;28;20459;-64
2022/01/16 10:32:22;;;;;;;2.87;2.63;;;1.50;98.00;;;;;;5100843;28;20570;-63
2022/01/16 10:34:52;;;;;;;2.73;2.00;;;1.50;98.00;;;;;;5092260;28;20490;-64
2022/01/16 10:37:26;;;;;;;1.90;1.87;;;1.60;98.00;;;;;;5107283;28;20485;-66
2022/01/16 10:40:00;;;;;;;4.30;2.97;;;1.60;98.00;;;;;;5100709;28;20580;-64
2022/01/16 10:42:28;;;;;;;2.40;2.03;;;1.70;98.00;;;;;;5100455;28;20511;-65
2022/01/16 10:45:07;;;;;;;3.43;2.23;;;1.60;98.00;;;;;;5092109;28;20767;-64
2022/01/16 10:47:40;;;;;;;3.27;2.30;;;1.70;98.00;;;;;;5100240;28;21049;-64
2022/01/16 10:50:11;;;;;;;1.97;1.80;;;1.80;98.00;;;;;;5082915;28;20564;-64
2022/01/16 10:53:00;;;;;;;1.50;1.50;;;2.00;98.00;;;;;;5100570;28;20545;-65
2022/01/16 10:55:36;;;;;;;6.53;2.47;;;2.00;98.00;;;;;;5090071;28;20519;-64
2022/01/16 10:58:11;;;;;;;2.80;1.83;;;2.10;98.00;;;;;;5095552;28;20537;-65
2022/01/16 11:00:54;;;;;;;4.83;3.20;;;2.10;98.00;;;;;;5105094;28;20458;-64
2022/01/16 11:03:26;;;;;;;5.77;3.67;;;2.10;98.00;;;;;;5101583;28;20494;-65
2022/01/16 11:05:53;;;;;;;2.07;1.93;;;1.80;98.00;;;;;;5091747;28;20462;-65
2022/01/16 11:08:24;;;;;;;5.03;2.87;;;1.70;98.00;;;;;;5098834;28;20486;-65
2022/01/16 11:10:54;;;;;;;4.83;1.80;;;1.70;98.00;;;;;;5091704;28;20466;-66
2022/01/16 11:13:24;;;;;;;2.40;2.23;;;1.80;98.00;;;;;;5092161;28;20555;-64
2022/01/16 11:15:55;;;;;;;1.93;1.87;;;1.80;98.00;;;;;;5092414;28;20459;-65
2022/01/16 11:18:24;;;;;;;4.30;2.97;;;1.60;98.00;;;;;;5092033;28;20522;-64
2022/01/16 11:20:57;;;;;;;2.53;2.33;;;1.70;98.00;;;;;;5092314;28;20531;-64
2022/01/16 11:23:29;;;;;;;2.03;1.37;;;1.70;98.00;;;;;;5091805;28;20456;-65
2022/01/16 11:25:58;;;;;;;2.57;2.03;;;1.70;98.00;;;;;;5091606;28;20462;-64
2022/01/16 11:28:25;;;;;;;1.60;1.50;;;1.90;98.00;;;;;;5091553;28;20987;-65
2022/01/16 11:30:56;;;;;;;1.60;1.50;;;2.00;98.00;;;;;;5073480;28;20548;-64
2022/01/16 11:33:25;;;;;;;2.23;2.03;;;2.00;98.00;;;;;;5091577;28;20495;-64
2022/01/16 11:35:55;;;;;;;7.40;2.60;;;2.10;98.00;;;;;;5091084;28;20490;-64
2022/01/16 11:38:29;;;;;;;1.63;1.60;;;2.20;98.00;;;;;;5091707;28;20544;-65
2022/01/16 11:40:57;;;;;;;5.90;2.43;;;2.30;98.00;;;;;;5092418;28;20538;-64
2022/01/16 11:43:50;;;;;;;2.40;2.20;;;2.40;98.00;;;;;;5092526;28;20467;-65
2022/01/16 11:46:20;;;;;;;1.20;1.17;;;2.40;98.00;;;;;;5091703;28;20509;-65
2022/01/16 11:48:54;;;;;;;1.97;1.57;;;2.40;98.00;;;;;;5092012;28;20452;-66
2022/01/16 11:52:01;;;;;;;2.60;2.40;;;2.30;98.00;;;;;;5091790;28;20464;-63
2022/01/16 11:54:37;;;;;;;1.20;1.20;;;2.40;98.00;;;;;;5090999;28;20985;-65
2022/01/16 11:57:21;;;;;;;1.20;1.20;;;2.40;98.00;;;;;;5090767;28;20491;-65
2022/01/16 11:59:53;;;;;;;1.90;1.80;;;2.50;98.00;;;;;;5089099;28;20522;-66
2022/01/16 12:02:28;;;;;;;3.40;2.87;;;2.40;98.00;;;;;;5092055;28;20455;-64
2022/01/16 12:05:00;;;;;;;2.50;2.23;;;2.50;98.00;;;;;;5091820;28;20455;-65
2022/01/16 12:08:08;;;;;;;3.60;1.90;;;2.50;98.00;;;;;;5091581;28;20485;-67
2022/01/16 12:10:44;;;;;;;2.67;2.47;;;2.50;98.00;;;;;;5092837;28;20470;-67
2022/01/16 12:13:50;;;;;;;2.70;1.83;;;2.50;98.00;;;;;;5096058;28;20557;-66
2022/01/16 12:16:50;;;;;;;2.27;2.07;;;2.60;98.00;;;;;;5065029;28;20517;-64
2022/01/16 12:19:52;;;;;;;2.53;2.17;;;2.50;98.00;;;;;;5095509;28;20910;-66
2022/01/16 12:22:42;;;;;;;1.17;1.10;;;2.40;98.00;;;;;;5095549;28;20455;-65
2022/01/16 12:25:16;;;;;;;4.87;3.20;;;2.50;98.00;;;;;;5095551;28;20458;-65
2022/01/16 12:27:46;;;;;;;1.87;1.77;;;2.40;98.00;;;;;;5095316;28;20497;-65
2022/01/16 12:30:41;;;;;;;1.63;1.40;;;2.40;98.00;;;;;;5095578;28;20500;-65
2022/01/16 12:33:25;;;;;;;1.67;1.60;;;2.50;98.00;;;;;;5059662;28;20512;-65
2022/01/16 12:36:09;;;;;;;1.57;1.50;;;2.50;98.00;;;;;;5095365;28;20461;-65
2022/01/16 12:38:55;;;;;;;2.20;2.00;;;2.50;98.00;;;;;;5095157;28;20490;-65
2022/01/16 12:41:30;;;;;;;9.40;3.20;;;2.60;98.00;;;;;;5095328;28;20516;-66
2022/01/16 12:43:59;;;;;;;2.00;1.83;;;2.60;98.00;;;;;;5095309;28;21107;-65
2022/01/16 12:46:30;;;;;;;1.53;1.43;;;2.70;98.00;;;;;;5095123;28;20458;-66
2022/01/16 12:49:02;;;;;;;1.77;1.67;;;2.80;98.00;;;;;;5095264;28;20978;-65
2022/01/16 12:51:34;;;;;;;1.63;1.53;;;2.80;98.00;;;;;;5095162;28;20538;-65
2022/01/16 12:54:07;;;;;;;1.90;1.60;;;2.90;98.00;;;;;;5094845;28;20499;-65
2022/01/16 12:56:37;;;;;;;4.23;2.50;;;2.90;98.00;;;;;;5094912;28;20941;-65
2022/01/16 12:59:15;;;;;;;1.40;1.30;;;2.80;98.00;;;;;;5094853;28;20562;-66
2022/01/16 13:01:49;;;;;;;2.30;2.10;;;2.80;98.00;;;;;;5094873;28;20502;-65
2022/01/16 13:04:26;;;;;;;1.70;1.60;;;2.80;98.00;;;;;;5094653;28;20459;-65
2022/01/16 13:06:55;;;;;;;1.47;1.47;;;2.90;98.00;;;;;;5094818;28;20553;-65
2022/01/16 13:09:23;;;;;;;2.23;2.03;;;2.90;98.00;;;;;;5094727;28;20506;-65
2022/01/16 13:11:52;;;;;;;3.73;2.37;;;3.00;98.00;;;;;;5094834;28;20925;-65
2022/01/16 13:14:22;;;;;;;2.23;1.83;;;2.90;98.00;;;;;;5094667;28;20494;-67
2022/01/16 13:16:52;;;;;;;1.93;1.53;;;2.90;98.00;;;;;;5094895;28;20456;-65
2022/01/16 13:19:22;;;;;;;1.80;1.63;;;3.10;98.00;;;;;;5094615;28;20573;-65
2022/01/16 13:22:03;;;;;;;2.37;2.17;;;3.00;98.00;;;;;;5093850;28;20496;-65
2022/01/16 13:24:37;;;;;;;2.23;1.63;;;3.10;98.00;;;;;;5093505;28;20464;-66
2022/01/16 13:27:07;;;;;;;2.40;1.93;;;3.10;98.00;;;;;;5094526;28;21098;-65
2022/01/16 13:29:36;;;;;;;3.73;3.40;;;3.00;98.00;;;;;;5093477;28;20874;-65
2022/01/16 13:32:05;;;;;;;1.77;1.67;;;3.10;98.00;;;;;;5094309;28;20510;-66
2022/01/16 13:34:38;;;;;;;1.50;1.40;;;3.10;98.00;;;;;;5094319;28;20456;-64
2022/01/16 13:37:11;;;;;;;1.57;1.53;;;3.10;98.00;;;;;;5094342;28;20483;-65
2022/01/16 13:39:41;;;;;;;1.87;1.77;;;3.10;98.00;;;;;;5094328;28;20487;-64
2022/01/16 13:42:41;;;;;;;2.43;1.80;;;3.10;98.00;;;;;;5092880;28;20487;-65
2022/01/16 13:45:24;;;;;;;1.53;1.37;;;3.10;98.00;;;;;;5082132;28;21052;-65
2022/01/16 13:47:58;;;;;;;1.90;1.83;;;3.10;98.00;;;;;;5093400;28;20544;-65